createdAt,value
2022-08-11T00:00:52.973Z,98419.16
2022-08-11T00:05:56.721Z,98411.56
2022-08-11T00:11:06.332Z,98414.59
2022-08-11T00:16:28.075Z,98413.91
2022-08-11T00:21:56.931Z,98406.28
2022-08-11T00:26:55.087Z,98413.78
2022-08-11T00:32:01.636Z,98416.81
2022-08-11T00:37:11.188Z,98412.19
2022-08-11T00:42:35.611Z,98420.25
2022-08-11T00:48:09.779Z,98412.50
2022-08-11T00:53:36.805Z,98410.81
2022-08-11T00:59:35.474Z,98416.00
2022-08-11T01:05:04.810Z,98409.38
2022-08-11T01:10:14.633Z,98410.63
2022-08-11T01:15:55.812Z,98411.75
2022-08-11T01:21:23.855Z,98409.25
2022-08-11T01:27:05.579Z,98420.81
2022-08-11T01:32:38.060Z,98407.91
2022-08-11T01:37:59.613Z,98405.03
2022-08-11T01:43:23.468Z,98403.84
2022-08-11T01:48:38.141Z,98400.84
2022-08-11T01:53:52.831Z,98398.00
2022-08-11T01:59:18.339Z,98390.66
2022-08-11T02:04:50.410Z,98388.69
2022-08-11T02:10:38.249Z,98384.66
2022-08-11T02:15:49.511Z,98389.69
2022-08-11T02:21:25.778Z,98396.75
2022-08-11T02:26:41.906Z,98387.94
2022-08-11T02:32:28.636Z,98387.47
2022-08-11T02:37:33.565Z,98388.25
2022-08-11T02:42:46.253Z,98383.75
2022-08-11T02:48:26.589Z,98379.31
2022-08-11T02:53:56.414Z,98389.81
2022-08-11T02:59:25.999Z,98395.00
2022-08-11T03:04:51.421Z,98393.59
2022-08-11T03:10:04.416Z,98389.72
2022-08-11T03:15:44.892Z,98383.03
2022-08-11T03:21:12.761Z,98389.44
2022-08-11T03:26:27.922Z,98399.31
2022-08-11T03:31:41.177Z,98407.38
2022-08-11T03:37:16.897Z,98405.59
2022-08-11T03:42:36.938Z,98413.72
2022-08-11T03:47:52.299Z,98404.84
2022-08-11T03:53:35.457Z,98408.25
2022-08-11T03:58:56.242Z,98410.63
2022-08-11T04:04:18.732Z,98411.94
2022-08-11T04:09:54.481Z,98400.19
2022-08-11T04:15:45.199Z,98410.72
2022-08-11T04:21:25.563Z,98401.00
2022-08-11T04:26:45.569Z,98401.81
2022-08-11T04:32:23.637Z,98402.84
2022-08-11T04:38:00.045Z,98408.41
2022-08-11T04:43:23.836Z,98405.66
2022-08-11T04:48:48.060Z,98405.63
2022-08-11T04:54:38.429Z,98406.63
2022-08-11T05:00:09.565Z,98412.19
2022-08-11T05:05:32.412Z,98421.53
2022-08-11T05:11:11.675Z,98419.00
2022-08-11T05:16:37.319Z,98424.06
2022-08-11T05:22:06.092Z,98422.56
2022-08-11T05:27:38.139Z,98417.75
2022-08-11T05:33:03.918Z,98423.34
2022-08-11T05:38:41.957Z,98411.22
2022-08-11T05:44:20.005Z,98423.28
2022-08-11T05:49:47.916Z,98432.16
2022-08-11T05:55:10.700Z,98426.53
2022-08-11T06:00:15.590Z,98431.88
2022-08-11T06:05:19.601Z,98418.41
2022-08-11T06:10:36.022Z,98428.47
2022-08-11T06:15:52.136Z,98430.97
2022-08-11T06:20:58.967Z,98425.78
2022-08-11T06:26:02.192Z,98422.09
2022-08-11T06:31:15.614Z,98425.59
2022-08-11T06:36:46.715Z,98417.47
2022-08-11T06:42:05.489Z,98431.19
2022-08-11T06:47:21.055Z,98428.00
2022-08-11T06:52:37.641Z,98419.31
2022-08-11T06:58:05.300Z,98421.66
2022-08-11T07:03:09.357Z,98428.78
2022-08-11T07:08:36.254Z,98422.06
2022-08-11T07:13:59.729Z,98420.75
2022-08-11T07:19:26.547Z,98425.28
2022-08-11T07:25:02.645Z,98424.97
2022-08-11T07:30:09.757Z,98415.47
2022-08-11T07:35:20.599Z,98408.78
2022-08-11T07:40:24.724Z,98402.63
2022-08-11T07:45:47.217Z,98410.19
2022-08-11T07:51:09.705Z,98404.88
2022-08-11T07:56:17.396Z,98407.50
2022-08-11T08:01:45.665Z,98400.63
2022-08-11T08:07:07.492Z,98403.78
2022-08-11T08:12:29.400Z,98404.72
2022-08-11T08:18:09.568Z,98401.28
2022-08-11T08:23:13.530Z,98399.53
2022-08-11T08:28:19.366Z,98397.91
2022-08-11T08:33:31.885Z,98403.88
2022-08-11T08:38:43.299Z,98408.81
2022-08-11T08:43:56.387Z,98410.75
2022-08-11T08:49:04.258Z,98411.22
2022-08-11T08:54:14.657Z,98402.03
2022-08-11T08:59:21.835Z,98397.41
2022-08-11T09:04:25.959Z,98401.00
2022-08-11T09:09:28.820Z,98396.13
2022-08-11T09:14:55.784Z,98408.69
2022-08-11T09:20:13.349Z,98396.19
2022-08-11T09:25:34.888Z,98402.00
2022-08-11T09:30:40.894Z,98402.16
2022-08-11T09:35:46.773Z,98408.69
2022-08-11T09:40:52.931Z,98390.25
2022-08-11T09:46:01.072Z,98395.13
2022-08-11T09:51:05.290Z,98391.56
2022-08-11T09:56:36.446Z,98385.28
2022-08-11T10:01:47.265Z,98383.91
2022-08-11T10:07:04.851Z,98374.81
2022-08-11T10:12:12.135Z,98374.16
2022-08-11T10:17:17.108Z,98378.75
2022-08-11T10:22:38.600Z,98368.78
2022-08-11T10:28:16.984Z,98369.63
2022-08-11T10:33:57.720Z,98360.47
2022-08-11T10:39:04.489Z,98349.97
2022-08-11T10:44:10.326Z,98360.56
2022-08-11T10:49:13.359Z,98359.56
2022-08-11T10:54:34.839Z,98348.88
2022-08-11T10:59:37.790Z,98340.94
2022-08-11T11:05:15.583Z,98340.84
2022-08-11T11:10:18.271Z,98323.00
2022-08-11T11:15:41.940Z,98324.00
2022-08-11T11:20:58.762Z,98326.50
2022-08-11T11:26:10.301Z,98314.59
2022-08-11T11:31:31.558Z,98319.47
2022-08-11T11:36:47.826Z,98294.84
2022-08-11T11:41:53.547Z,98308.88
2022-08-11T11:46:56.915Z,98285.72
2022-08-11T11:52:01.048Z,98285.06
2022-08-11T11:57:23.143Z,98286.69
2022-08-11T12:02:28.259Z,98281.47
2022-08-11T12:08:04.887Z,98286.78
2022-08-11T12:13:32.211Z,98272.47
2022-08-11T12:18:35.906Z,98270.13
2022-08-11T12:24:04.113Z,98264.81
2022-08-11T12:29:10.609Z,98262.28
2022-08-11T12:34:17.504Z,98263.56
2022-08-11T12:40:15.645Z,98258.47
2022-08-11T12:45:29.586Z,98249.75
2022-08-11T12:50:52.719Z,98240.66
2022-08-11T12:56:22.200Z,98240.31
2022-08-11T13:01:43.521Z,98229.06
2022-08-11T13:06:46.813Z,98221.81
2022-08-11T13:12:08.240Z,98216.56
2022-08-11T13:17:40.454Z,98208.59
2022-08-11T13:22:47.304Z,98202.38
2022-08-11T13:27:54.175Z,98200.53
2022-08-11T13:32:57.182Z,98202.69
2022-08-11T13:38:17.267Z,98196.09
2022-08-11T13:43:23.837Z,98196.47
2022-08-11T13:48:26.398Z,98193.03
2022-08-11T13:53:30.657Z,98190.00
2022-08-11T13:58:40.277Z,98178.25
2022-08-11T14:04:29.760Z,98173.78
2022-08-11T14:09:16.185Z,98161.41
2022-08-11T14:14:26.468Z,98157.09
2022-08-11T14:19:30.625Z,98147.25
2022-08-11T14:24:35.237Z,98149.13
2022-08-11T14:29:48.577Z,98156.75
2022-08-11T14:34:52.594Z,98157.72
2022-08-11T14:40:03.280Z,98137.66
2022-08-11T14:45:57.919Z,98135.28
2022-08-11T14:50:59.365Z,98128.97
2022-08-11T14:56:21.517Z,98136.09
2022-08-11T15:01:44.417Z,98118.41
2022-08-11T15:06:47.361Z,98120.59
2022-08-11T15:12:32.153Z,98119.13
2022-08-11T15:17:42.717Z,98109.63
2022-08-11T15:23:04.868Z,98109.53
2022-08-11T15:28:28.856Z,98094.47
2022-08-11T15:33:50.768Z,98104.19
2022-08-11T15:39:03.744Z,98090.97
2022-08-11T15:44:59.012Z,98096.00
2022-08-11T15:50:10.860Z,98087.31
2022-08-11T15:55:17.644Z,98076.97
2022-08-11T16:00:38.943Z,98082.41
2022-08-11T16:05:46.523Z,98087.88
2022-08-11T16:10:56.306Z,98075.28
2022-08-11T16:16:17.359Z,98071.34
2022-08-11T16:21:34.855Z,98069.09
2022-08-11T16:27:08.256Z,98059.88
2022-08-11T16:32:18.947Z,98058.25
2022-08-11T16:37:42.038Z,98057.13
2022-08-11T16:43:10.768Z,98053.19
2022-08-11T16:48:35.856Z,98061.22
2022-08-11T16:53:46.004Z,98054.88
2022-08-11T16:59:15.664Z,98052.59
2022-08-11T17:04:44.169Z,98050.56
2022-08-11T17:10:38.255Z,98060.09
2022-08-11T17:15:50.825Z,98053.56
2022-08-11T17:20:55.637Z,98052.63
2022-08-11T17:26:03.823Z,98050.56
2022-08-11T17:31:27.216Z,98043.63
2022-08-11T17:36:29.780Z,98041.97
2022-08-11T17:41:51.009Z,98038.31
2022-08-11T17:47:13.331Z,98028.59
2022-08-11T17:52:35.508Z,98035.88
2022-08-11T17:57:58.482Z,98038.69
2022-08-11T18:03:20.432Z,98047.66
2022-08-11T18:08:42.712Z,98043.78
2022-08-11T18:14:06.407Z,98049.19
2022-08-11T18:19:30.744Z,98053.09
2022-08-11T18:24:57.316Z,98048.44
2022-08-11T18:30:21.569Z,98052.28
2022-08-11T18:35:43.195Z,98056.69
2022-08-11T18:41:07.204Z,98064.09
2022-08-11T18:46:30.965Z,98064.22
2022-08-11T18:51:55.133Z,98073.38
2022-08-11T18:57:20.742Z,98080.47
2022-08-11T19:02:49.227Z,98090.75
2022-08-11T19:08:14.406Z,98092.97
2022-08-11T19:13:42.589Z,98105.22
2022-08-11T19:19:06.215Z,98112.75
2022-08-11T19:24:28.025Z,98108.91
2022-08-11T19:30:07.160Z,98115.91
2022-08-11T19:35:32.962Z,98126.47
2022-08-11T19:40:57.828Z,98119.47
2022-08-11T19:46:22.089Z,98123.88
2022-08-11T19:51:43.733Z,98121.81
2022-08-11T19:57:06.040Z,98123.66
2022-08-11T20:02:27.798Z,98123.44
2022-08-11T20:07:50.649Z,98120.34
2022-08-11T20:13:18.186Z,98119.91
2022-08-11T20:18:44.226Z,98124.09
2022-08-11T20:24:06.990Z,98124.84
2022-08-11T20:29:29.811Z,98123.66
2022-08-11T20:34:54.652Z,98123.66
2022-08-11T20:40:17.137Z,98135.81
2022-08-11T20:45:47.265Z,98138.84
2022-08-11T20:51:17.536Z,98143.84
2022-08-11T20:56:40.286Z,98137.88
2022-08-11T21:02:03.111Z,98142.28
2022-08-11T21:07:28.609Z,98147.03
2022-08-11T21:12:55.344Z,98154.75
2022-08-11T21:18:28.393Z,98160.34
2022-08-11T21:23:53.186Z,98156.09
2022-08-11T21:29:17.143Z,98163.47
2022-08-11T21:34:42.836Z,98159.66
2022-08-11T21:40:07.713Z,98162.75
2022-08-11T21:45:31.558Z,98165.88
2022-08-11T21:50:53.045Z,98158.78
2022-08-11T21:56:15.517Z,98169.88
2022-08-11T22:01:40.599Z,98161.94
2022-08-11T22:07:03.533Z,98160.66
2022-08-11T22:12:34.111Z,98164.59
2022-08-11T22:18:02.799Z,98150.59
2022-08-11T22:23:24.910Z,98144.25
2022-08-11T22:28:56.316Z,98145.00
2022-08-11T22:34:17.399Z,98138.84
2022-08-11T22:39:40.444Z,98136.78
2022-08-11T22:45:01.901Z,98134.78
2022-08-11T22:50:27.153Z,98142.47
2022-08-11T22:55:49.043Z,98148.97
2022-08-11T23:01:10.737Z,98155.09
2022-08-11T23:06:33.645Z,98147.56
2022-08-11T23:12:07.910Z,98148.78
2022-08-11T23:17:32.603Z,98141.81
2022-08-11T23:22:55.220Z,98138.19
2022-08-11T23:28:19.924Z,98138.00
2022-08-11T23:33:42.892Z,98145.63
2022-08-11T23:39:04.203Z,98155.25
2022-08-11T23:44:26.714Z,98145.28
2022-08-11T23:49:48.539Z,98147.25
2022-08-11T23:55:10.884Z,98147.13
